Time;durP1;ratioP1;P1;durP2;ratioP2;P2;SDS_P1;SDS_P2;PMS_P1;PMS_P2;Temp;Humidity;BMP_temperature;BMP_pressure;BME280_temperature;BME280_humidity;BME280_pressure;Samples;Min_cycle;Max_cycle;Signal;HPM_P1;HPM_P2
2022/04/01 00:01:05;;;;;;;12.20;3.88;;;12.50;96.70;;;;;;5079759;27;20069;-83
2022/04/01 00:03:33;;;;;;;7.55;3.28;;;12.50;96.70;;;;;;5108304;27;20043;-81
2022/04/01 00:06:01;;;;;;;12.90;3.80;;;12.50;96.70;;;;;;5129684;27;20488;-82
2022/04/01 00:08:30;;;;;;;7.18;3.33;;;12.50;96.70;;;;;;5124054;27;20427;-83
2022/04/01 00:10:58;;;;;;;7.13;3.47;;;12.50;96.70;;;;;;5114069;27;20553;-83
2022/04/01 00:13:26;;;;;;;7.50;2.80;;;12.50;96.70;;;;;;5110334;28;20097;-83
2022/04/01 00:15:54;;;;;;;15.15;4.50;;;12.50;96.70;;;;;;5106478;27;20063;-83
2022/04/01 00:18:25;;;;;;;10.10;3.25;;;12.50;96.70;;;;;;5132694;27;20050;-82
2022/04/01 00:20:53;;;;;;;9.10;3.28;;;12.50;96.70;;;;;;5096891;27;20081;-82
2022/04/01 00:23:21;;;;;;;7.38;3.60;;;12.40;96.70;;;;;;5132423;27;20046;-83
2022/04/01 00:25:50;;;;;;;8.07;3.10;;;12.40;96.70;;;;;;5113952;27;20049;-83
2022/04/01 00:28:18;;;;;;;6.82;3.55;;;12.40;96.70;;;;;;5113160;27;20039;-83
2022/04/01 00:30:46;;;;;;;10.90;3.78;;;12.30;96.70;;;;;;5126318;27;20050;-83
2022/04/01 00:33:16;;;;;;;8.52;3.03;;;12.30;96.70;;;;;;5111229;27;20043;-83
2022/04/01 00:35:46;;;;;;;7.00;3.40;;;12.20;96.70;;;;;;5105369;27;20035;-83
2022/04/01 00:38:14;;;;;;;8.63;3.20;;;12.10;96.70;;;;;;5116955;27;20051;-82
2022/04/01 00:40:42;;;;;;;12.95;3.65;;;12.20;96.70;;;;;;5097938;27;20078;-83
2022/04/01 00:43:11;;;;;;;10.07;3.47;;;12.10;96.70;;;;;;5110171;27;20525;-82
2022/04/01 00:45:39;;;;;;;7.47;3.60;;;12.10;96.70;;;;;;5110343;27;20511;-82
2022/04/01 00:48:08;;;;;;;11.02;3.33;;;12.10;96.70;;;;;;5113033;27;20039;-82
2022/04/01 00:50:37;;;;;;;5.88;3.05;;;12.00;96.70;;;;;;5112807;27;20050;-82
2022/04/01 00:53:07;;;;;;;7.55;3.08;;;12.00;96.70;;;;;;5112458;27;20051;-81
2022/04/01 00:55:36;;;;;;;10.50;3.80;;;12.00;96.70;;;;;;5113083;27;20454;-82
2022/04/01 00:58:05;;;;;;;10.18;3.20;;;12.10;96.70;;;;;;5095723;27;20049;-82
2022/04/01 01:00:36;;;;;;;9.38;2.97;;;12.10;96.70;;;;;;5112487;27;20051;-82
2022/04/01 01:03:04;;;;;;;10.00;3.20;;;12.10;96.70;;;;;;5109513;27;20031;-82
2022/04/01 01:05:33;;;;;;;8.93;3.78;;;12.00;96.70;;;;;;5110405;27;20099;-82
2022/04/01 01:08:05;;;;;;;7.10;3.20;;;12.10;96.70;;;;;;5102962;28;20044;-82
2022/04/01 01:10:35;;;;;;;10.70;3.78;;;12.00;96.70;;;;;;5110069;27;20058;-83
2022/04/01 01:13:03;;;;;;;10.07;4.13;;;12.10;96.70;;;;;;5111883;27;20039;-82
2022/04/01 01:15:31;;;;;;;8.02;3.70;;;12.10;96.70;;;;;;5111890;27;20063;-83
2022/04/01 01:18:00;;;;;;;10.65;3.60;;;12.10;96.70;;;;;;5111965;27;20042;-82
2022/04/01 01:20:28;;;;;;;11.20;3.53;;;12.10;96.70;;;;;;5108183;28;20051;-82
2022/04/01 01:22:57;;;;;;;9.25;3.78;;;12.10;96.70;;;;;;5105423;27;20446;-83
2022/04/01 01:25:28;;;;;;;8.23;5.03;;;12.10;96.70;;;;;;5109392;27;20241;-83
2022/04/01 01:27:56;;;;;;;10.52;4.15;;;12.10;96.70;;;;;;5095047;27;20590;-82
2022/04/01 01:30:24;;;;;;;12.32;4.45;;;12.10;96.70;;;;;;5108412;27;20044;-83
2022/04/01 01:32:53;;;;;;;9.30;4.10;;;12.10;96.70;;;;;;5124546;27;20507;-82
2022/04/01 01:35:22;;;;;;;8.38;4.47;;;12.10;96.70;;;;;;5111276;27;20084;-83
2022/04/01 01:37:50;;;;;;;8.48;4.25;;;12.10;96.70;;;;;;5104252;27;20546;-84
2022/04/01 01:40:18;;;;;;;11.77;4.28;;;12.10;96.70;;;;;;5110932;27;20074;-84
2022/04/01 01:42:48;;;;;;;9.98;4.15;;;12.00;96.70;;;;;;5101667;28;20054;-84
2022/04/01 01:45:16;;;;;;;7.28;4.10;;;12.00;96.70;;;;;;5107904;27;20047;-84
2022/04/01 01:47:45;;;;;;;9.27;4.40;;;12.00;96.70;;;;;;5111990;27;20043;-84
2022/04/01 01:55:48;;;;;;;8.27;4.15;;;11.90;96.70;;;;;;5109009;27;20116;-82
2022/04/01 01:58:18;;;;;;;7.40;4.00;;;11.90;96.70;;;;;;5128107;27;20141;-83
2022/04/01 02:00:46;;;;;;;7.68;4.07;;;11.90;96.70;;;;;;5111437;27;20162;-83
2022/04/01 02:03:14;;;;;;;9.32;4.63;;;11.90;96.70;;;;;;5094421;27;20095;-84
2022/04/01 02:05:50;;;;;;;8.10;4.15;;;11.90;96.70;;;;;;5110922;27;20054;-83
2022/04/01 02:08:18;;;;;;;9.07;4.32;;;11.90;96.70;;;;;;5089452;28;20040;-83
2022/04/01 02:10:46;;;;;;;8.02;4.53;;;11.90;96.70;;;;;;5104948;27;20142;-83
2022/04/01 02:13:15;;;;;;;9.50;5.15;;;11.90;96.70;;;;;;5101623;27;20043;-84
2022/04/01 02:15:45;;;;;;;9.18;4.47;;;11.90;96.70;;;;;;5093601;27;20519;-83
2022/04/01 02:18:13;;;;;;;8.60;4.20;;;11.90;96.70;;;;;;5109684;27;20043;-84
2022/04/01 02:20:41;;;;;;;9.93;4.28;;;11.90;96.70;;;;;;5126675;27;20046;-84
2022/04/01 02:23:11;;;;;;;11.25;5.18;;;11.90;96.70;;;;;;5110852;27;20340;-84
2022/04/01 02:25:42;;;;;;;6.93;4.88;;;11.80;96.70;;;;;;5111434;27;20045;-84
2022/04/01 02:28:12;;;;;;;7.50;3.97;;;11.90;96.70;;;;;;5103831;27;20075;-84
2022/04/01 02:30:41;;;;;;;8.57;3.92;;;11.90;96.70;;;;;;5108581;27;20058;-77
2022/04/01 02:33:35;;;;;;;9.13;4.22;;;11.90;96.70;;;;;;5123815;27;20039;-77
2022/04/01 02:36:06;;;;;;;9.43;3.80;;;11.90;96.70;;;;;;5102710;27;20112;-78
2022/04/01 02:38:34;;;;;;;5.93;3.80;;;11.80;96.70;;;;;;5082203;27;20051;-78
2022/04/01 02:41:02;;;;;;;7.22;4.60;;;11.80;96.70;;;;;;5087985;27;20533;-77
2022/04/01 02:43:34;;;;;;;9.80;3.65;;;11.90;96.70;;;;;;5104198;27;20898;-78
2022/04/01 02:46:05;;;;;;;6.68;3.38;;;11.80;96.70;;;;;;5121857;27;20047;-77
2022/04/01 02:48:44;;;;;;;10.55;3.83;;;11.80;96.70;;;;;;5105082;27;20043;-77
2022/04/01 02:51:53;;;;;;;7.10;3.22;;;11.80;96.70;;;;;;5055108;28;20045;-77
2022/04/01 02:54:21;;;;;;;7.80;3.28;;;11.80;96.70;;;;;;5026536;28;20094;-77
2022/04/01 02:56:51;;;;;;;6.70;3.05;;;11.70;96.70;;;;;;5071831;28;20047;-77
2022/04/01 02:59:19;;;;;;;5.70;3.63;;;11.70;96.70;;;;;;5103889;28;20053;-76
2022/04/01 03:01:47;;;;;;;6.60;3.15;;;11.70;96.70;;;;;;5103613;28;20063;-77
2022/04/01 03:04:17;;;;;;;4.60;3.10;;;11.70;96.70;;;;;;5105216;28;20059;-77
2022/04/01 03:06:53;;;;;;;4.75;2.78;;;11.70;96.70;;;;;;5117979;27;20088;-77
2022/04/01 03:09:22;;;;;;;5.50;2.85;;;11.70;96.70;;;;;;5102219;28;20044;-78
2022/04/01 03:12:12;;;;;;;7.60;4.05;;;11.70;96.70;;;;;;5097332;28;20050;-77
2022/04/01 03:15:02;;;;;;;6.30;2.83;;;11.70;96.70;;;;;;5101050;27;20043;-77
2022/04/01 03:17:49;;;;;;;7.07;3.22;;;11.70;96.70;;;;;;5105900;28;20549;-77
2022/04/01 03:20:33;;;;;;;5.22;2.67;;;11.70;96.70;;;;;;5104338;28;20047;-79
2022/04/01 03:23:02;;;;;;;5.38;3.10;;;11.70;96.70;;;;;;5122064;28;20047;-77
2022/04/01 03:25:37;;;;;;;4.40;2.80;;;11.70;96.70;;;;;;5121711;28;20039;-77
2022/04/01 03:28:19;;;;;;;6.65;2.70;;;11.60;96.70;;;;;;5102893;28;20055;-77
2022/04/01 03:30:52;;;;;;;5.93;2.95;;;11.60;96.70;;;;;;5102516;28;20048;-78
2022/04/01 03:33:26;;;;;;;7.60;3.30;;;11.40;96.70;;;;;;5105574;28;20051;-77
2022/04/01 03:35:57;;;;;;;5.15;2.72;;;11.50;96.70;;;;;;5104162;27;20563;-77
2022/04/01 03:38:29;;;;;;;7.43;2.60;;;11.50;96.70;;;;;;5103460;28;20528;-77
2022/04/01 03:40:57;;;;;;;4.53;2.50;;;11.50;96.70;;;;;;5119036;27;20504;-77
2022/04/01 03:43:28;;;;;;;6.32;2.90;;;11.50;96.70;;;;;;5106046;28;20047;-78
2022/04/01 03:46:00;;;;;;;5.20;3.00;;;11.50;96.70;;;;;;5105336;28;20043;-77
2022/04/01 03:48:34;;;;;;;5.05;2.78;;;11.50;96.70;;;;;;5104288;27;20062;-78
2022/04/01 03:51:04;;;;;;;5.97;2.53;;;11.50;96.70;;;;;;5119788;27;20083;-78
2022/04/01 03:53:41;;;;;;;5.75;3.20;;;11.50;96.70;;;;;;5097885;28;20047;-78
2022/04/01 03:56:20;;;;;;;4.57;3.10;;;11.50;96.70;;;;;;5118172;27;20248;-77
2022/04/01 03:59:09;;;;;;;4.80;2.90;;;11.60;96.70;;;;;;5105717;28;20066;-78
2022/04/01 04:01:56;;;;;;;6.05;3.90;;;11.50;96.70;;;;;;5105446;28;20062;-77
2022/04/01 04:04:24;;;;;;;4.97;3.33;;;11.50;96.70;;;;;;5087720;28;20070;-77
2022/04/01 04:06:57;;;;;;;5.50;3.10;;;11.40;96.70;;;;;;5088076;28;20588;-77
2022/04/01 04:09:25;;;;;;;4.82;3.35;;;11.50;96.70;;;;;;5099780;28;20048;-77
2022/04/01 04:11:54;;;;;;;7.88;3.30;;;11.50;96.70;;;;;;5104901;28;20035;-78
2022/04/01 04:14:27;;;;;;;6.15;2.90;;;11.50;96.70;;;;;;5103944;27;20044;-77
2022/04/01 04:16:57;;;;;;;6.35;3.15;;;11.50;96.70;;;;;;5098564;27;20078;-77
2022/04/01 04:19:39;;;;;;;5.53;3.20;;;11.50;96.70;;;;;;5105985;27;20043;-78
2022/04/01 04:22:13;;;;;;;6.10;2.60;;;11.50;96.70;;;;;;5102539;27;20062;-77
2022/04/01 04:25:00;;;;;;;5.93;2.55;;;11.50;96.70;;;;;;5107793;27;20042;-77
2022/04/01 04:27:29;;;;;;;7.50;2.58;;;11.60;96.70;;;;;;5106630;27;20130;-78
2022/04/01 04:30:09;;;;;;;5.47;2.67;;;11.60;96.70;;;;;;5117846;27;20035;-83
2022/04/01 04:32:56;;;;;;;7.55;3.10;;;11.60;96.70;;;;;;5103408;28;20048;-84
2022/04/01 04:35:28;;;;;;;5.95;2.95;;;11.60;96.70;;;;;;5110756;27;20047;-83
2022/04/01 04:37:58;;;;;;;6.38;2.90;;;11.50;96.70;;;;;;5109857;28;20168;-81
2022/04/01 04:40:28;;;;;;;5.60;2.85;;;11.50;96.70;;;;;;5129673;27;20100;-81
2022/04/01 04:43:12;;;;;;;8.10;3.80;;;11.50;96.70;;;;;;5094411;27;20051;-81
2022/04/01 04:45:40;;;;;;;8.13;3.83;;;11.50;96.70;;;;;;5096245;27;20678;-81
2022/04/01 04:48:11;;;;;;;4.78;3.50;;;11.50;96.70;;;;;;5096289;27;20049;-81
2022/04/01 04:50:45;;;;;;;6.93;3.50;;;11.50;96.70;;;;;;5112573;27;20084;-81
2022/04/01 04:53:17;;;;;;;9.48;3.45;;;11.50;96.70;;;;;;5130583;27;20077;-82
2022/04/01 04:55:49;;;;;;;7.70;3.40;;;11.50;96.70;;;;;;5092963;27;20055;-84
2022/04/01 04:58:22;;;;;;;;;;;11.40;96.70;;;;;;5112923;27;20077;-83
2022/04/01 05:01:02;;;;;;;5.45;3.05;;;11.40;96.70;;;;;;5095933;27;19928;-77
2022/04/01 05:03:49;;;;;;;8.70;4.70;;;11.30;96.70;;;;;;5096135;27;20094;-77
2022/04/01 05:06:25;;;;;;;9.88;5.20;;;11.20;96.70;;;;;;5123665;27;20051;-79
2022/04/01 05:09:23;;;;;;;9.45;4.53;;;11.10;96.70;;;;;;5125705;27;20448;-77
2022/04/01 05:12:21;;;;;;;6.30;3.53;;;11.00;96.70;;;;;;5118406;27;20545;-77
2022/04/01 05:15:10;;;;;;;4.45;3.22;;;10.90;96.70;;;;;;5088709;27;20424;-77
2022/04/01 05:17:49;;;;;;;8.43;5.33;;;10.80;96.70;;;;;;5119309;27;20484;-78
2022/04/01 05:20:24;;;;;;;6.50;3.70;;;10.80;96.70;;;;;;5109567;27;20292;-78
2022/04/01 05:23:06;;;;;;;9.43;3.50;;;10.80;96.70;;;;;;5105004;27;20047;-78
2022/04/01 05:25:42;;;;;;;7.75;3.03;;;10.90;96.70;;;;;;5105657;27;20042;-78
2022/04/01 05:28:34;;;;;;;9.75;3.90;;;10.90;96.70;;;;;;5100327;27;20039;-77
2022/04/01 05:31:06;;;;;;;5.22;3.65;;;11.00;96.70;;;;;;5089018;27;20049;-77
2022/04/01 05:33:40;;;;;;;6.63;3.40;;;11.20;96.70;;;;;;5107152;27;20076;-78
2022/04/01 05:36:11;;;;;;;7.38;3.33;;;11.30;96.70;;;;;;5104826;27;20557;-78
2022/04/01 05:38:42;;;;;;;4.25;3.00;;;11.40;96.70;;;;;;5106800;27;20412;-79
2022/04/01 05:41:12;;;;;;;6.88;3.70;;;11.40;96.70;;;;;;5104285;27;20054;-77
2022/04/01 05:43:41;;;;;;;6.57;3.50;;;11.50;96.70;;;;;;5105884;27;20100;-78
2022/04/01 05:46:39;;;;;;;6.00;3.58;;;11.50;96.70;;;;;;5107955;27;20412;-77
2022/04/01 05:49:12;;;;;;;6.63;3.40;;;11.60;96.70;;;;;;5090027;27;20043;-77
2022/04/01 05:51:41;;;;;;;5.85;3.45;;;11.60;96.70;;;;;;5102938;27;20221;-77
2022/04/01 05:54:11;;;;;;;4.82;3.35;;;11.70;96.70;;;;;;5103744;27;20054;-78
2022/04/01 05:56:44;;;;;;;6.57;4.00;;;11.70;96.70;;;;;;5088216;27;20051;-77
2022/04/01 05:59:14;;;;;;;6.70;3.80;;;11.80;96.70;;;;;;5105676;27;20049;-77
2022/04/01 06:01:45;;;;;;;7.60;4.70;;;11.80;96.70;;;;;;5097255;27;20043;-77
2022/04/01 06:04:55;;;;;;;7.55;4.32;;;11.90;96.70;;;;;;5123921;27;20042;-78
2022/04/01 06:07:31;;;;;;;5.55;4.28;;;12.00;96.70;;;;;;5090462;27;20082;-77
2022/04/01 06:10:11;;;;;;;8.38;4.78;;;12.10;96.70;;;;;;5122202;27;20047;-77
2022/04/01 06:13:06;;;;;;;7.90;3.92;;;12.10;96.70;;;;;;5121162;27;20665;-78
2022/04/01 06:16:03;;;;;;;7.28;4.32;;;12.20;96.70;;;;;;5123301;27;20057;-77
2022/04/01 06:18:59;;;;;;;9.73;4.47;;;12.20;96.70;;;;;;5105075;27;20039;-77
2022/04/01 06:21:29;;;;;;;8.05;4.28;;;12.30;96.70;;;;;;5103581;27;20146;-77
2022/04/01 06:24:10;;;;;;;9.75;4.30;;;12.40;96.70;;;;;;5117887;27;20039;-78
2022/04/01 06:26:51;;;;;;;11.48;5.03;;;12.40;96.70;;;;;;5089477;27;20048;-75
2022/04/01 06:29:37;;;;;;;12.73;4.70;;;12.50;96.70;;;;;;5104055;27;20070;-82
2022/04/01 06:32:07;;;;;;;8.27;4.13;;;12.60;96.70;;;;;;5111154;27;20475;-82
2022/04/01 06:34:55;;;;;;;13.13;4.13;;;12.60;96.70;;;;;;5128347;27;20043;-81
2022/04/01 06:37:47;;;;;;;8.15;3.67;;;12.70;96.70;;;;;;5117317;27;20055;-81
2022/04/01 06:40:19;;;;;;;9.25;4.30;;;12.70;96.70;;;;;;5111134;27;20568;-84
2022/04/01 06:42:53;;;;;;;11.52;3.55;;;12.80;96.70;;;;;;5094388;27;20057;-85
2022/04/01 06:45:46;;;;;;;11.98;3.47;;;12.80;96.70;;;;;;5110938;27;20043;-83
2022/04/01 06:48:14;;;;;;;12.43;3.78;;;12.90;96.70;;;;;;5110820;27;20047;-81
2022/04/01 06:51:01;;;;;;;;;;;13.10;96.70;;;;;;5128772;27;20069;-82
2022/04/01 06:53:49;;;;;;;8.63;4.13;;;13.30;96.70;;;;;;5113887;27;19927;-82
2022/04/01 06:56:36;;;;;;;8.82;4.18;;;13.30;96.70;;;;;;5106573;27;20050;-82
2022/04/01 06:59:05;;;;;;;11.95;3.85;;;13.40;96.70;;;;;;5111269;28;20550;-83
2022/04/01 07:01:35;;;;;;;11.20;4.15;;;13.40;96.70;;;;;;5110647;28;20378;-79
2022/04/01 07:04:04;;;;;;;10.95;4.32;;;13.40;96.70;;;;;;5093777;28;20107;-80
2022/04/01 07:06:34;;;;;;;14.52;4.97;;;13.40;96.70;;;;;;5128498;27;20274;-80
2022/04/01 07:09:02;;;;;;;13.63;3.95;;;13.40;96.70;;;;;;5106794;28;20983;-81
2022/04/01 07:11:30;;;;;;;20.92;4.13;;;13.50;96.70;;;;;;5110554;28;20039;-81
2022/04/01 07:13:59;;;;;;;15.23;4.43;;;13.50;96.70;;;;;;5122903;28;20313;-81
2022/04/01 07:16:27;;;;;;;17.45;4.20;;;13.60;96.70;;;;;;5100213;28;20142;-80
2022/04/01 07:18:58;;;;;;;11.40;4.18;;;13.70;96.70;;;;;;5110812;28;20096;-81
2022/04/01 07:21:27;;;;;;;16.80;4.57;;;13.80;96.70;;;;;;5094241;28;20039;-81
2022/04/01 07:23:56;;;;;;;14.13;3.95;;;13.90;96.70;;;;;;5101250;28;20043;-81
2022/04/01 07:26:24;;;;;;;9.48;3.92;;;13.90;96.70;;;;;;5093375;28;20039;-81
2022/04/01 07:28:54;;;;;;;15.68;3.78;;;14.00;96.70;;;;;;5109893;28;20044;-83
2022/04/01 07:34:41;;;;;;;13.75;3.65;;;14.00;96.70;;;;;;5119918;28;20085;-82
2022/04/01 07:37:10;;;;;;;13.77;3.65;;;14.10;96.70;;;;;;5110069;28;20047;-81
2022/04/01 07:39:39;;;;;;;13.85;4.30;;;14.20;96.70;;;;;;5092953;28;20051;-79
2022/04/01 07:42:08;;;;;;;12.57;4.20;;;14.30;96.70;;;;;;5103530;28;20127;-81
2022/04/01 07:44:36;;;;;;;14.38;5.00;;;14.30;96.70;;;;;;5109413;28;20092;-79
2022/04/01 07:47:09;;;;;;;11.93;3.75;;;14.30;96.70;;;;;;5110093;28;20035;-80
2022/04/01 07:49:40;;;;;;;13.02;5.18;;;14.20;96.70;;;;;;5104016;28;20119;-80
2022/04/01 07:52:19;;;;;;;17.58;4.95;;;14.20;96.70;;;;;;5115004;27;20051;-81
2022/04/01 07:54:49;;;;;;;15.07;5.20;;;14.10;96.70;;;;;;5109994;27;20073;-81
2022/04/01 07:57:18;;;;;;;13.90;4.15;;;14.10;96.70;;;;;;5109350;27;20067;-80
2022/04/01 07:59:47;;;;;;;11.23;4.05;;;14.10;96.70;;;;;;5112648;27;20043;-83
2022/04/01 08:02:16;;;;;;;12.80;4.00;;;14.10;96.70;;;;;;5130701;27;20050;-82
2022/04/01 08:04:47;;;;;;;9.90;4.32;;;14.20;96.70;;;;;;5096397;27;20525;-82
2022/04/01 08:07:15;;;;;;;13.40;3.42;;;14.30;96.70;;;;;;5105698;27;20046;-82
2022/04/01 08:09:44;;;;;;;12.38;3.90;;;14.30;96.70;;;;;;5111577;27;20138;-81
2022/04/01 08:12:13;;;;;;;12.82;4.40;;;14.40;96.70;;;;;;5096356;27;20050;-81
2022/04/01 08:14:41;;;;;;;11.50;3.75;;;14.50;96.70;;;;;;5112908;27;20043;-82
2022/04/01 08:17:12;;;;;;;12.80;4.32;;;14.40;96.70;;;;;;5096700;27;20141;-83
2022/04/01 08:19:41;;;;;;;14.30;3.60;;;14.40;96.70;;;;;;5113688;27;20151;-81
2022/04/01 08:22:11;;;;;;;14.50;3.95;;;14.50;96.70;;;;;;5131838;27;20046;-81
2022/04/01 08:24:41;;;;;;;12.23;4.20;;;14.60;96.70;;;;;;5111775;27;20051;-80
2022/04/01 08:27:11;;;;;;;11.50;3.78;;;14.60;96.70;;;;;;5112515;28;20695;-80
2022/04/01 08:29:39;;;;;;;13.15;4.30;;;14.40;96.70;;;;;;5115725;27;20147;-82
2022/04/01 08:32:08;;;;;;;11.40;3.80;;;14.30;96.70;;;;;;5096475;27;20047;-83
2022/04/01 08:34:37;;;;;;;11.38;4.07;;;14.40;96.70;;;;;;5108527;27;20488;-80
2022/04/01 08:37:07;;;;;;;11.75;3.33;;;14.50;96.70;;;;;;5095929;27;20083;-80
2022/04/01 08:39:43;;;;;;;15.60;4.70;;;14.60;96.70;;;;;;5113287;27;20086;-81
2022/04/01 08:42:12;;;;;;;13.65;3.67;;;14.60;96.70;;;;;;5102776;27;20047;-84
2022/04/01 08:44:44;;;;;;;14.90;4.28;;;14.70;96.70;;;;;;5101996;27;20101;-81
2022/04/01 08:47:12;;;;;;;15.15;4.10;;;14.80;96.70;;;;;;5096717;27;20796;-82
2022/04/01 08:49:40;;;;;;;10.27;3.42;;;14.80;96.70;;;;;;5113014;27;20502;-82
2022/04/01 08:52:09;;;;;;;11.25;4.07;;;14.80;96.70;;;;;;5095811;27;20096;-81
2022/04/01 08:54:40;;;;;;;19.35;3.70;;;14.80;96.70;;;;;;5112701;27;20047;-81
2022/04/01 08:57:08;;;;;;;9.30;3.15;;;14.80;96.70;;;;;;5095352;27;20515;-79
2022/04/01 08:59:37;;;;;;;10.43;3.10;;;14.90;96.70;;;;;;5109586;27;20050;-79
2022/04/01 09:02:07;;;;;;;11.73;2.97;;;15.00;96.70;;;;;;5110927;27;20055;-79
2022/04/01 09:04:36;;;;;;;10.98;2.90;;;15.00;96.70;;;;;;5092880;28;20040;-83
2022/04/01 09:07:11;;;;;;;10.27;2.72;;;14.90;96.70;;;;;;5120969;27;20039;-82
2022/04/01 09:09:41;;;;;;;12.52;2.90;;;14.90;96.70;;;;;;5112176;27;20042;-82
2022/04/01 09:12:11;;;;;;;8.85;3.17;;;15.00;96.70;;;;;;5112282;27;20114;-83
2022/04/01 09:14:40;;;;;;;11.68;3.10;;;15.10;96.70;;;;;;5112837;27;20051;-81
2022/04/01 09:17:14;;;;;;;11.45;3.42;;;15.10;96.70;;;;;;5110533;27;20811;-82
2022/04/01 09:20:01;;;;;;;12.05;3.85;;;14.90;96.70;;;;;;5113606;27;20039;-83
2022/04/01 09:22:30;;;;;;;9.48;3.60;;;14.80;96.70;;;;;;5126281;27;20039;-83
2022/04/01 09:25:04;;;;;;;11.90;3.53;;;14.70;96.70;;;;;;5107447;27;20087;-84
2022/04/01 09:27:53;;;;;;;10.52;3.33;;;14.60;96.70;;;;;;5116728;27;20035;-78
2022/04/01 09:30:27;;;;;;;8.18;2.80;;;14.80;96.70;;;;;;5102551;27;20054;-78
2022/04/01 09:32:57;;;;;;;9.60;3.45;;;15.00;96.70;;;;;;5105021;27;20046;-78
2022/04/01 09:35:28;;;;;;;13.27;3.45;;;15.10;96.70;;;;;;5125128;27;20045;-77
2022/04/01 09:37:59;;;;;;;10.75;3.60;;;15.00;96.70;;;;;;5123409;27;20035;-78
2022/04/01 09:40:30;;;;;;;15.77;4.13;;;15.00;96.70;;;;;;5118488;27;20568;-79
2022/04/01 09:43:08;;;;;;;14.68;3.58;;;14.80;96.70;;;;;;5105239;27;20051;-78
2022/04/01 09:45:37;;;;;;;10.93;3.33;;;14.80;96.70;;;;;;5122164;27;20055;-79
2022/04/01 09:48:07;;;;;;;9.82;3.33;;;14.80;96.70;;;;;;5104770;27;20054;-78
2022/04/01 09:50:39;;;;;;;8.13;3.35;;;14.80;96.70;;;;;;5089177;27;20095;-77
2022/04/01 09:53:09;;;;;;;9.57;3.33;;;14.70;96.70;;;;;;5124770;27;20047;-77
2022/04/01 09:55:41;;;;;;;10.15;3.38;;;14.80;96.70;;;;;;5103498;27;20123;-79
2022/04/01 09:58:10;;;;;;;14.77;4.18;;;14.90;96.70;;;;;;5123449;27;20043;-80
2022/04/01 10:00:40;;;;;;;12.30;3.85;;;15.00;96.70;;;;;;5105394;27;20035;-78
2022/04/01 10:03:10;;;;;;;14.60;3.42;;;15.00;96.70;;;;;;5107505;27;20050;-78
2022/04/01 10:05:40;;;;;;;13.18;4.63;;;15.10;96.70;;;;;;5118229;27;20056;-79
2022/04/01 10:08:09;;;;;;;9.55;3.00;;;15.20;96.70;;;;;;5105922;27;20417;-80
2022/04/01 10:10:41;;;;;;;12.68;3.97;;;15.30;96.70;;;;;;5102362;27;20039;-79
2022/04/01 10:13:15;;;;;;;12.40;3.83;;;15.40;96.70;;;;;;5085557;27;20079;-79
2022/04/01 10:15:43;;;;;;;13.55;3.65;;;15.60;96.70;;;;;;5123719;27;20035;-79
2022/04/01 10:18:32;;;;;;;9.98;3.15;;;15.80;96.70;;;;;;5100056;27;20043;-78
2022/04/01 10:21:03;;;;;;;11.45;4.07;;;15.70;96.70;;;;;;5114513;27;20157;-79
2022/04/01 10:23:36;;;;;;;13.20;3.88;;;15.40;96.70;;;;;;5113912;27;20043;-79
2022/04/01 10:26:13;;;;;;;17.40;4.07;;;15.10;96.70;;;;;;5098432;27;20047;-78
2022/04/01 10:28:45;;;;;;;10.63;3.40;;;14.80;96.70;;;;;;5102804;27;20066;-79
2022/04/01 10:31:19;;;;;;;11.90;3.53;;;14.50;96.70;;;;;;5104738;27;20042;-77
2022/04/01 10:33:48;;;;;;;15.70;3.67;;;14.40;96.70;;;;;;5116214;27;20047;-78
2022/04/01 10:36:27;;;;;;;10.88;3.35;;;14.20;96.70;;;;;;5102374;28;20480;-79
2022/04/01 10:39:00;;;;;;;12.50;4.25;;;14.10;96.70;;;;;;5104874;27;20044;-78
2022/04/01 10:41:30;;;;;;;13.40;3.97;;;13.90;96.70;;;;;;5104597;28;20409;-79
2022/04/01 10:44:00;;;;;;;13.93;3.88;;;13.90;96.70;;;;;;5100477;27;20047;-79
2022/04/01 10:46:29;;;;;;;10.13;3.17;;;13.90;96.70;;;;;;5107567;27;20504;-79
2022/04/01 10:52:04;;;;;;;10.18;3.00;;;14.00;96.70;;;;;;5103128;27;20056;-79
2022/04/01 10:54:42;;;;;;;9.77;3.63;;;14.00;96.70;;;;;;5101745;28;20532;-78
2022/04/01 10:57:24;;;;;;;8.68;3.30;;;13.90;96.70;;;;;;5084703;28;20075;-79
2022/04/01 10:59:54;;;;;;;11.05;3.38;;;13.90;96.70;;;;;;5102352;28;20049;-79
2022/04/01 11:02:23;;;;;;;11.55;5.65;;;13.80;96.70;;;;;;5105332;27;20066;-78
2022/04/01 11:04:52;;;;;;;12.23;4.47;;;13.90;96.70;;;;;;5099377;28;20509;-78
2022/04/01 11:07:33;;;;;;;14.52;6.35;;;13.90;96.70;;;;;;5094279;28;20425;-79
2022/04/01 11:10:05;;;;;;;10.43;3.53;;;14.00;96.70;;;;;;5100364;28;20401;-79
2022/04/01 11:12:39;;;;;;;11.85;4.28;;;14.00;96.70;;;;;;5114433;27;20128;-79
2022/04/01 11:15:17;;;;;;;8.27;2.90;;;14.00;96.70;;;;;;5107672;28;20136;-83
2022/04/01 11:18:09;;;;;;;10.70;3.63;;;14.10;96.70;;;;;;5094079;28;20047;-84
2022/04/01 11:20:40;;;;;;;11.15;3.05;;;13.90;96.70;;;;;;5117303;28;20044;-78
2022/04/01 11:23:11;;;;;;;10.45;3.70;;;13.90;96.70;;;;;;5098621;28;20097;-78
2022/04/01 11:25:57;;;;;;;10.13;3.72;;;13.80;96.70;;;;;;5084330;27;20739;-83
2022/04/01 11:28:38;;;;;;;9.23;3.47;;;13.80;96.70;;;;;;5107956;28;20101;-85
2022/04/01 11:31:09;;;;;;;10.55;3.70;;;13.80;96.70;;;;;;5104761;28;20047;-82
2022/04/01 11:33:38;;;;;;;12.38;4.03;;;13.80;96.70;;;;;;5097923;28;20067;-84
2022/04/01 11:36:07;;;;;;;13.40;3.58;;;13.80;96.70;;;;;;5096311;28;20044;-85
2022/04/01 11:38:35;;;;;;;13.02;3.65;;;13.80;96.70;;;;;;5109781;28;20050;-85
2022/04/01 11:41:04;;;;;;;23.55;3.85;;;13.70;96.70;;;;;;5103762;28;20141;-86
2022/04/01 11:43:34;;;;;;;12.43;3.78;;;13.60;96.70;;;;;;5107727;28;20720;-87
2022/04/01 11:46:06;;;;;;;12.98;4.28;;;13.60;96.70;;;;;;5103173;28;20051;-87
2022/04/01 11:48:36;;;;;;;11.13;3.40;;;13.60;96.70;;;;;;5111422;28;20043;-87
2022/04/01 11:51:08;;;;;;;9.57;3.38;;;13.60;96.70;;;;;;5111250;27;20153;-86
2022/04/01 11:53:38;;;;;;;10.13;3.58;;;13.60;96.70;;;;;;5104635;28;20044;-86
2022/04/01 11:56:10;;;;;;;10.82;3.50;;;13.70;96.70;;;;;;5108635;27;20093;-86
2022/04/01 11:58:53;;;;;;;9.10;2.97;;;13.70;96.70;;;;;;5093118;28;20058;-85
2022/04/01 12:01:23;;;;;;;10.48;3.22;;;13.80;96.70;;;;;;5103635;28;20052;-86
2022/04/01 12:04:00;;;;;;;9.60;2.78;;;13.80;96.70;;;;;;5104770;28;20047;-83
2022/04/01 12:09:15;;;;;;;8.53;3.20;;;13.80;96.70;;;;;;5105126;28;20040;-78
2022/04/01 12:11:50;;;;;;;12.68;3.35;;;13.80;96.70;;;;;;5098037;28;20381;-78
2022/04/01 12:14:24;;;;;;;13.00;3.25;;;13.80;96.70;;;;;;5105269;28;20078;-78
2022/04/01 12:16:52;;;;;;;12.07;3.10;;;13.80;96.70;;;;;;5104959;28;20078;-78
2022/04/01 12:19:22;;;;;;;10.57;2.92;;;13.80;96.70;;;;;;5099526;28;20079;-78
2022/04/01 12:21:51;;;;;;;11.55;2.95;;;13.70;96.70;;;;;;5102429;28;20035;-76
2022/04/01 12:24:19;;;;;;;8.55;2.80;;;13.80;96.70;;;;;;5086218;28;20083;-78
2022/04/01 12:26:48;;;;;;;12.75;3.42;;;13.80;96.70;;;;;;5103499;28;20036;-78
2022/04/01 12:29:21;;;;;;;11.23;2.90;;;13.80;96.70;;;;;;5083956;28;20047;-77
2022/04/01 12:31:53;;;;;;;12.05;2.70;;;13.80;96.70;;;;;;5102782;28;20084;-78
2022/04/01 12:34:22;;;;;;;12.45;2.38;;;13.90;96.70;;;;;;5106270;28;20050;-78
2022/04/01 12:36:56;;;;;;;9.80;2.88;;;13.90;96.70;;;;;;5103222;28;20048;-78
2022/04/01 12:39:32;;;;;;;12.77;3.05;;;14.00;96.70;;;;;;5103418;27;20116;-78
2022/04/01 12:42:05;;;;;;;11.98;2.65;;;14.10;96.70;;;;;;5104763;28;20130;-78
2022/04/01 12:44:36;;;;;;;13.27;3.17;;;14.10;96.70;;;;;;5100356;28;20097;-77
2022/04/01 12:47:06;;;;;;;12.23;2.80;;;14.20;96.70;;;;;;5102192;28;20048;-78
2022/04/01 12:49:40;;;;;;;14.15;2.72;;;14.30;96.70;;;;;;5093146;27;20100;-78
2022/04/01 12:52:14;;;;;;;9.98;3.05;;;14.50;96.70;;;;;;5094654;28;20067;-77
2022/04/01 12:54:48;;;;;;;12.18;2.22;;;14.60;96.70;;;;;;5103570;28;20095;-78
2022/04/01 12:57:21;;;;;;;6.60;1.80;;;14.70;96.70;;;;;;5103302;27;20266;-78
2022/04/01 12:59:51;;;;;;;14.38;3.28;;;14.90;96.70;;;;;;5104619;28;20135;-78
2022/04/01 13:02:23;;;;;;;9.85;2.97;;;15.00;96.70;;;;;;5082639;28;20036;-77
2022/04/01 13:04:53;;;;;;;12.45;1.65;;;15.20;96.70;;;;;;5101342;28;20124;-78
2022/04/01 13:07:29;;;;;;;12.48;2.63;;;15.30;96.70;;;;;;5086791;28;20910;-78
2022/04/01 13:09:58;;;;;;;8.87;2.13;;;15.50;96.70;;;;;;5103841;28;20052;-77
2022/04/01 13:12:38;;;;;;;14.98;3.10;;;15.40;96.70;;;;;;5097131;27;20688;-78
2022/04/01 13:15:08;;;;;;;15.50;4.40;;;15.30;96.70;;;;;;5100798;27;20071;-78
2022/04/01 13:17:43;;;;;;;18.67;3.00;;;15.60;96.70;;;;;;5103343;27;20497;-78
2022/04/01 13:20:12;;;;;;;10.35;2.60;;;15.60;96.70;;;;;;5117049;27;20112;-77
2022/04/01 13:22:41;;;;;;;15.23;2.50;;;15.70;96.70;;;;;;5104342;27;20036;-78
2022/04/01 13:25:12;;;;;;;9.18;2.83;;;15.70;96.70;;;;;;5103605;28;20046;-78
2022/04/01 13:27:41;;;;;;;14.10;2.95;;;15.70;96.70;;;;;;5102638;28;20043;-77